Terminal Aerodrome Forecast
Issued by NWS

Home | Current Version | Previous Version | Text Only | Print | Product List | Glossary On
Versions: 1 2 3 4 5 6 7 8 9 10 11 12 13 14 15 16 17
000
FTUS46 KSEW 311500 AAA
TAFCLM
TAF AMD
KCLM 311510Z 3115/0112 VRB03KT P6SM -SHRA SCT015 OVC035
      TEMPO 3115/3118 3SM -RA BR BKN015 OVC030
     FM312000 VRB03KT P6SM VCSH SCT020 BKN040
     FM010600 28006KT P6SM BKN015 OVC040=

USA.gov is the U.S. government's official web portal to all federal, state and local government web resources and services.